Stuttgart, AR (72160)

3:23 PM CDT on July 23, 2014 (GMT -0500)
Stuttgart Municipal (KSGT) Elev 223 ft | 34.60 °N, 91.57 °W | Change Station

Current weather conditions updated 8 minutes ago

Overcast
Overcast
91 °F
Feels Like 100 °F
N
7
Wind Variable Wind from South

Today is forecast to be Warmer than yesterday.

Today
High -- | Low -- °F
--% Chance of Precip.
Yesterday
High -- | Low -- °F
Precip. -- in
6:10 AM 8:14 PM
Waning Crescent, 9% visible
Pressure 29.97 in
Visibility 10.0 miles
Clouds Clear
Heat Index 100 °F
Dew Point 73 °F
Humidity 55%
Rainfall 0.00 in
Snow Depth Not available.
UV 10 out of 12
Pollen 3.80 out of 12
Air Quality Not available.
Flu Activity Not available.
METAR KSGT 232015Z AUTO 17006KT 10SM CLR 33/23 A2997 RMK AO1

More Conditions Fewer Conditions

Pressure 29.97 in
Visibility 10.0 miles
Clouds Clear
Heat Index 100 °F
Dew Point 73 °F
Humidity 55%
Rainfall 0.00 in
Snow Depth Not available.
UV 10 out of 12
Pollen 3.80 out of 12
Air Quality Not available.
Flu Activity Not available.
METAR KSGT 232015Z AUTO 17006KT 10SM CLR 33/23 A2997 RMK AO1

More Conditions Fewer Conditions

10-Day Weather Forecast

Almanac

Astronomy

Jul. 23, 2014 Rise Set
Actual Time 6:10 AM CDT 8:14 PM CDT
Civil Twilight 5:41 AM CDT 8:42 PM CDT
Nautical Twilight 5:07 AM CDT 9:17 PM CDT
Astronomical Twilight 4:30 AM CDT 9:54 PM CDT
Moon 3:28 AM CDT 5:44 PM CDT
Length of Visible Light 15h 00m
Length of Day
14h 04m
Tomorrow will be 1m 22s shorter.
Waning Crescent, 9% of the Moon is Illuminated
Today
Waning Crescent
Jul 26
New
Aug 3
First Quarter
Aug 10
Full
Aug 17
Last Quarter

Today's Extremes

State Highs State Lows

Community

WunderPhotos

Upload Photos

1,736,758 photos uploaded!

Nearby

Snow Depth

Station Depth Elevation
No new snow has been reported.

Earthquake Activity

City Distance Mag. Time & Date
No recent earthquake activity has been reported nearby.
Minimum magnitude displayed is 2.5.

Coastal Water Temperatures

Place Temperature
No Stations Reporting

Nearby Weather Stations

Station Location Temp. Heat Index Dew Point Humidity Wind Precip. Elev Updated Type
SW DeWitt, De Witt, AR 91.8 °F 104 °F 76 °F 60% SSE  at  2.4 mph 0.00 in / hr 190 ft 3:23 PM CDT Rapid Fire
MesoWest UAPB DeWitt , De Witt, AR 90 °F 99 °F 73 °F 58% SW  at  3 mph 0.00 in / hr 196 ft 2:00 PM CDT MADIS
Cornerstone Farms, Altheimer, AR 90.8 °F 106 °F 78 °F 67% SE  at  1.0 mph 0.00 in / hr 203 ft 3:20 PM CDT Normal
MesoWest ARIVER , Altheimer, AR 88 °F 85 °F - - North  at  - 0.00 in / hr 211 ft 11:30 AM CDT MADIS

Show More Stations Show Fewer Stations